Route Details

Aircraft Information
Group: Trans-Pacific Ops
Types: B744, MD11
Route Data
Distance: 3160nm
Duration: 7h 20m
Origin METAR: OMDB 160000Z 10007KT 060V120 CAVOK 34/24 Q0998 NOSIG
Dest. METAR: WSSS 160030Z 15007KT 9999 3000N -SHRA FEW012 FEW015CB FEW017TCU SCT030 26/23 Q1011 RESHRA TEMPO FM0100 TL0200 3000 TSRA
Freight Data
(for Aug 16, 2022)
Load Factor:
95%
Manifested Cargo: 180,045lbs
Financial History
Total Freight: 0lbs
Average Load: 0lbs/flt
Fuel Used: 0lbs
Avg. Fuel Used: 0lbs/flt
Fuel Expense: $0
Avg. Fuel Expense: $0
Avg. Fuel Cost: $0/lbs
Total Gross Income: $0
Pilot Pay: $0
Total Expenses: $0
Total Revenue: $0
Average Revenue: $0

Capitol Logistics 816




OMDB
Dubai International Airport
Dubai, AE
WSSS
Changi International Airport
Singapore, SG

Activity Log

Date Flight Route Aircraft Duration
No Flights Yet